createdAt,value
2023-02-11T00:28:01.507Z,1034.29
2023-02-11T00:58:01.468Z,1034.29
2023-02-11T01:28:01.540Z,1034.04
2023-02-11T01:58:01.518Z,1033.68
2023-02-11T02:28:01.549Z,1033.38
2023-02-11T02:58:01.537Z,1033.17
2023-02-11T03:28:01.560Z,1033.19
2023-02-11T03:58:01.551Z,1033.06
2023-02-11T04:28:01.586Z,1032.45
2023-02-11T04:58:01.546Z,1032.36
2023-02-11T05:28:01.555Z,1032.28
2023-02-11T05:58:01.571Z,1032.12
2023-02-11T06:28:01.606Z,1032.08
2023-02-11T06:58:01.532Z,1032.37
2023-02-11T07:28:01.568Z,1032.34
2023-02-11T07:58:01.570Z,1032.69
2023-02-11T08:28:01.633Z,1032.55
2023-02-11T08:58:01.556Z,1032.58
2023-02-11T09:28:01.635Z,1032.54
2023-02-11T09:58:01.559Z,1032.74
2023-02-11T10:28:01.615Z,1032.91
2023-02-11T10:58:01.576Z,1032.73
2023-02-11T11:28:01.620Z,1032.86
2023-02-11T11:58:01.591Z,1032.68
2023-02-11T12:33:48.764Z,1032.56
2023-02-11T13:03:48.692Z,1032.41
2023-02-11T13:33:48.671Z,1032.11
2023-02-11T14:03:48.689Z,1032.09
2023-02-11T14:33:48.700Z,1032.11
2023-02-11T15:03:48.714Z,1032.18
2023-02-11T15:33:48.712Z,1032.34
2023-02-11T16:03:48.779Z,1032.44
2023-02-11T16:33:48.748Z,1032.64
2023-02-11T17:03:48.745Z,1032.82
2023-02-11T17:33:48.734Z,1033
2023-02-11T18:03:48.734Z,1033.04
2023-02-11T18:33:48.734Z,1033.23
2023-02-11T19:03:48.736Z,1033.37
2023-02-11T19:33:48.745Z,1033.62
2023-02-11T20:03:48.748Z,1033.72
2023-02-11T20:33:48.759Z,1033.67
2023-02-11T21:03:48.756Z,1034.04
2023-02-11T21:33:48.792Z,1034.1
2023-02-11T22:03:48.782Z,1034.34
2023-02-11T22:33:48.780Z,1034.33
2023-02-11T23:03:48.780Z,1034.44
2023-02-11T23:33:48.800Z,1034.4
